Time;durP1;ratioP1;P1;durP2;ratioP2;P2;SDS_P1;SDS_P2;PMS_P1;PMS_P2;Temp;Humidity;BMP_temperature;BMP_pressure;BME280_temperature;BME280_humidity;BME280_pressure;Samples;Min_cycle;Max_cycle;Signal;HPM_P1;HPM_P2
2023/04/21 00:00:22;;;;;;;;;;;;;;;-142.75;100.00;77668.84;5011015;28;19909;-65
2023/04/21 00:02:48;;;;;;;;;;;;;;;-142.75;100.00;77684.59;5011469;28;19992;-66
2023/04/21 00:05:14;;;;;;;;;;;;;;;-142.75;100.00;77682.63;5012853;28;19909;-66
2023/04/21 00:07:40;;;;;;;;;;;;;;;-142.75;100.00;77690.50;5012522;28;20382;-65
2023/04/21 00:10:06;;;;;;;;;;;;;;;-142.75;100.00;77670.81;5019534;28;20000;-66
2023/04/21 00:12:32;;;;;;;;;;;;;;;-142.75;100.00;77690.50;5012365;28;19909;-66
2023/04/21 00:14:57;;;;;;;;;;;;;;;-142.75;100.00;77684.59;5012502;28;19909;-66
2023/04/21 00:17:22;;;;;;;;;;;;;;;-142.75;100.00;77662.94;5012634;28;19913;-66
2023/04/21 00:19:47;;;;;;;;;;;;;;;-142.75;100.00;77668.84;5010890;28;19910;-66
2023/04/21 00:22:13;;;;;;;;;;;;;;;-142.75;100.00;77666.88;5012389;28;20370;-66
2023/04/21 00:24:39;;;;;;;;;;;;;;;-142.75;100.00;77668.84;5012283;28;20404;-67
2023/04/21 00:27:04;;;;;;;;;;;;;;;-142.75;100.00;77688.53;5012549;28;19909;-65
2023/04/21 00:29:30;;;;;;;;;;;;;;;-142.75;100.00;77660.97;4994741;28;19916;-66
2023/04/21 00:31:55;;;;;;;;;;;;;;;-142.75;100.00;77653.09;5011859;28;20394;-65
2023/04/21 00:34:20;;;;;;;;;;;;;;;-142.75;100.00;77637.34;5004318;28;19953;-66
2023/04/21 00:36:45;;;;;;;;;;;;;;;-142.75;100.00;77633.41;4992765;28;19937;-66
2023/04/21 00:39:10;;;;;;;;;;;;;;;-142.75;100.00;77623.56;4992776;28;20007;-66
2023/04/21 00:41:37;;;;;;;;;;;;;;;-142.75;100.00;77625.53;4992638;28;19911;-67
2023/04/21 00:44:06;;;;;;;;;;;;;;;-142.75;100.00;77592.06;4992252;28;19909;-66
2023/04/21 00:46:32;;;;;;;;;;;;;;;-142.75;100.00;77601.91;4992712;28;19909;-66
2023/04/21 00:48:58;;;;;;;;;;;;;;;-142.75;100.00;77590.09;4975261;28;20008;-65
2023/04/21 00:51:23;;;;;;;;;;;;;;;-142.75;100.00;77582.22;4992654;28;19960;-66
2023/04/21 00:53:49;;;;;;;;;;;;;;;-142.75;100.00;77586.16;4992137;28;19924;-68
2023/04/21 00:56:15;;;;;;;;;;;;;;;-142.75;100.00;77588.13;4992549;28;19910;-66
2023/04/21 00:58:41;;;;;;;;;;;;;;;-142.75;100.00;77566.47;4992428;28;20350;-66
2023/04/21 01:01:07;;;;;;;;;;;;;;;-142.75;100.00;77572.38;4992427;28;19910;-64
2023/04/21 01:03:32;;;;;;;;;;;;;;;-142.75;100.00;77578.28;4992214;28;19910;-66
2023/04/21 01:05:57;;;;;;;;;;;;;;;-142.75;100.00;77586.16;4992449;28;19952;-66
2023/04/21 01:08:22;;;;;;;;;;;;;;;-142.75;100.00;77562.53;4992499;28;19963;-66
2023/04/21 01:10:48;;;;;;;;;;;;;;;-142.75;100.00;77570.41;4992452;28;19916;-66
2023/04/21 01:13:13;;;;;;;;;;;;;;;-142.75;100.00;77570.41;4991935;28;19936;-66
2023/04/21 01:15:38;;;;;;;;;;;;;;;-142.75;100.00;77554.66;4992397;28;20448;-66
2023/04/21 01:18:04;;;;;;;;;;;;;;;-142.75;100.00;77546.78;4992980;28;20321;-65
2023/04/21 01:20:29;;;;;;;;;;;;;;;-142.75;100.00;77542.84;4992348;28;19914;-66
2023/04/21 01:22:54;;;;;;;;;;;;;;;-142.75;100.00;77534.97;4991978;28;19910;-66
2023/04/21 01:25:22;;;;;;;;;;;;;;;-142.75;100.00;77542.84;4992327;28;19910;-66
2023/04/21 01:27:47;;;;;;;;;;;;;;;-142.75;100.00;77554.66;4990958;28;19910;-66
2023/04/21 01:30:12;;;;;;;;;;;;;;;-142.75;100.00;77550.72;4992551;28;19909;-66
2023/04/21 01:32:37;;;;;;;;;;;;;;;-142.75;100.00;77542.84;4994986;28;19909;-65
2023/04/21 01:35:03;;;;;;;;;;;;;;;-142.75;100.00;77550.72;4996097;28;19925;-63
2023/04/21 01:37:30;;;;;;;;;;;;;;;-142.75;100.00;77554.66;4995962;28;20530;-65
2023/04/21 01:39:57;;;;;;;;;;;;;;;-142.75;100.00;77538.91;4995848;28;19910;-66
2023/04/21 01:42:24;;;;;;;;;;;;;;;-142.75;100.00;77531.03;4995317;28;19928;-64
2023/04/21 01:44:49;;;;;;;;;;;;;;;-142.75;100.00;77534.97;4995599;28;19914;-65
2023/04/21 01:47:15;;;;;;;;;;;;;;;-142.75;100.00;77534.97;4995726;28;19916;-65
2023/04/21 01:49:40;;;;;;;;;;;;;;;-142.75;100.00;77511.34;4995726;28;19910;-66
2023/04/21 01:52:05;;;;;;;;;;;;;;;-142.75;100.00;77523.16;4978167;28;20393;-66
2023/04/21 01:54:31;;;;;;;;;;;;;;;-142.75;100.00;77519.22;4995254;28;19913;-66
2023/04/21 01:56:57;;;;;;;;;;;;;;;-142.75;100.00;77513.31;4995447;28;20379;-67
2023/04/21 01:59:22;;;;;;;;;;;;;;;-142.75;100.00;77540.88;4995665;28;20394;-66
2023/04/21 02:01:47;;;;;;;;;;;;;;;-142.75;100.00;77519.22;4995426;28;19909;-65
2023/04/21 02:04:12;;;;;;;;;;;;;;;-142.75;100.00;77501.50;4995132;28;19910;-66
2023/04/21 02:06:37;;;;;;;;;;;;;;;-142.75;100.00;77507.41;4995320;28;19916;-66
2023/04/21 02:09:03;;;;;;;;;;;;;;;-142.75;100.00;77503.47;4995349;28;19910;-66
2023/04/21 02:11:28;;;;;;;;;;;;;;;-142.75;100.00;77503.47;4995249;28;19988;-65
2023/04/21 02:13:53;;;;;;;;;;;;;;;-142.75;100.00;77531.03;4994788;28;19914;-65
2023/04/21 02:16:19;;;;;;;;;;;;;;;-142.75;100.00;77499.53;4995210;28;19914;-66
2023/04/21 02:18:45;;;;;;;;;;;;;;;-142.75;100.00;77487.72;4995267;28;19909;-66
2023/04/21 02:21:10;;;;;;;;;;;;;;;-142.75;100.00;77479.84;4993896;28;19910;-66
2023/04/21 02:23:35;;;;;;;;;;;;;;;-142.75;100.00;77491.66;4994756;28;19909;-66
2023/04/21 02:26:00;;;;;;;;;;;;;;;-142.75;100.00;77483.78;4993677;28;20341;-66
2023/04/21 02:28:26;;;;;;;;;;;;;;;-142.75;100.00;77487.72;4995034;28;19910;-66
2023/04/21 02:30:51;;;;;;;;;;;;;;;-142.75;100.00;77487.72;4994990;28;19910;-66
2023/04/21 02:33:16;;;;;;;;;;;;;;;-142.75;100.00;77497.56;5011012;28;19917;-66
2023/04/21 02:35:41;;;;;;;;;;;;;;;-142.75;100.00;77475.91;5014390;28;19909;-66
2023/04/21 02:38:07;;;;;;;;;;;;;;;-142.75;100.00;77470.00;5014425;28;19910;-66
2023/04/21 02:40:33;;;;;;;;;;;;;;;-142.75;100.00;77466.03;5014253;28;19916;-66
2023/04/21 02:42:58;;;;;;;;;;;;;;;-142.75;100.00;77464.09;5013302;28;20382;-66
2023/04/21 02:45:24;;;;;;;;;;;;;;;-142.75;100.00;77464.09;5014241;28;19916;-66
2023/04/21 02:47:49;;;;;;;;;;;;;;;-142.75;100.00;77483.78;5014167;28;19956;-66
2023/04/21 02:50:14;;;;;;;;;;;;;;;-142.75;100.00;77456.22;5014135;28;19913;-66
2023/04/21 02:52:40;;;;;;;;;;;;;;;-142.75;100.00;77471.97;4996172;28;19909;-66
2023/04/21 02:55:05;;;;;;;;;;;;;;;-142.75;100.00;77464.09;4995561;28;20322;-66
2023/04/21 02:57:30;;;;;;;;;;;;;;;-142.75;100.00;77444.38;5013363;28;19913;-66
2023/04/21 02:59:56;;;;;;;;;;;;;;;-142.75;100.00;77446.34;5012505;28;19942;-66
2023/04/21 03:02:21;;;;;;;;;;;;;;;-142.75;100.00;77452.25;5012357;28;19909;-64
2023/04/21 03:04:46;;;;;;;;;;;;;;;-142.75;100.00;77450.28;5012431;28;19913;-66
2023/04/21 03:07:12;;;;;;;;;;;;;;;-142.75;100.00;77468.03;5013837;28;19931;-65
2023/04/21 03:09:37;;;;;;;;;;;;;;;-142.75;100.00;77464.09;5013986;28;19953;-66
2023/04/21 03:12:02;;;;;;;;;;;;;;;-142.75;100.00;77450.28;5013628;28;19959;-66
2023/04/21 03:14:28;;;;;;;;;;;;;;;-142.75;100.00;77446.34;5012186;28;19920;-66
2023/04/21 03:16:53;;;;;;;;;;;;;;;-142.75;100.00;77440.44;5011815;28;19909;-66
2023/04/21 03:19:18;;;;;;;;;;;;;;;-142.75;100.00;77448.34;5012011;28;19913;-65
2023/04/21 03:21:43;;;;;;;;;;;;;;;-142.75;100.00;77448.34;5013318;28;19917;-65
2023/04/21 03:24:08;;;;;;;;;;;;;;;-142.75;100.00;77442.41;5013160;28;19917;-65
2023/04/21 03:26:34;;;;;;;;;;;;;;;-142.75;100.00;77444.38;5013407;28;19917;-65
2023/04/21 03:28:59;;;;;;;;;;;;;;;-142.75;100.00;77450.28;4995858;28;19909;-66
2023/04/21 03:31:24;;;;;;;;;;;;;;;-142.75;100.00;77444.38;5013452;28;19909;-66
2023/04/21 03:33:50;;;;;;;;;;;;;;;-142.75;100.00;77460.13;5012971;28;20005;-65
2023/04/21 03:36:15;;;;;;;;;;;;;;;-142.75;100.00;77452.25;5013319;28;20068;-65
2023/04/21 03:38:40;;;;;;;;;;;;;;;-142.75;100.00;77436.50;5013344;28;19952;-65
2023/04/21 03:41:05;;;;;;;;;;;;;;;-142.75;100.00;77428.63;4995520;28;19996;-65
2023/04/21 03:43:30;;;;;;;;;;;;;;;-142.75;100.00;77418.78;5012825;28;20284;-65
2023/04/21 03:45:56;;;;;;;;;;;;;;;-142.75;100.00;77406.97;5013102;28;20428;-63
2023/04/21 03:48:21;;;;;;;;;;;;;;;-142.75;100.00;77406.97;5013067;28;19913;-66
2023/04/21 03:50:46;;;;;;;;;;;;;;;-142.75;100.00;77416.81;5013020;28;19917;-65
2023/04/21 03:53:11;;;;;;;;;;;;;;;-142.75;100.00;77397.13;5011469;28;19913;-66
2023/04/21 03:55:37;;;;;;;;;;;;;;;-142.75;100.00;77399.09;5012187;28;19925;-66
2023/04/21 03:58:02;;;;;;;;;;;;;;;-142.75;100.00;77393.19;4995701;28;19921;-65
2023/04/21 04:00:27;;;;;;;;;;;;;;;-142.75;100.00;77383.34;5011675;28;19909;-66
2023/04/21 04:02:52;;;;;;;;;;;;;;;-142.75;100.00;77387.28;5012593;28;19909;-65
2023/04/21 04:05:17;;;;;;;;;;;;;;;-142.75;100.00;77387.28;5012813;28;19909;-66
2023/04/21 04:07:44;;;;;;;;;;;;;;;-142.75;100.00;77389.25;5011557;28;19909;-65
2023/04/21 04:10:10;;;;;;;;;;;;;;;-142.75;100.00;77408.94;5012684;28;19909;-65
2023/04/21 04:12:35;;;;;;;;;;;;;;;-142.75;100.00;77395.16;5011161;28;19910;-65
2023/04/21 04:15:01;;;;;;;;;;;;;;;-142.75;100.00;77385.31;5012583;28;19955;-65
2023/04/21 04:17:26;;;;;;;;;;;;;;;-142.75;100.00;77385.31;5012628;28;20389;-65
2023/04/21 04:19:52;;;;;;;;;;;;;;;-142.75;100.00;77399.09;5012584;28;20306;-65
2023/04/21 04:22:17;;;;;;;;;;;;;;;-142.75;100.00;77375.47;5012372;28;20405;-65
2023/04/21 04:24:43;;;;;;;;;;;;;;;-142.75;100.00;77393.19;5012120;28;20367;-65
2023/04/21 04:27:09;;;;;;;;;;;;;;;-142.75;100.00;77399.09;5012496;28;19909;-65
2023/04/21 04:29:35;;;;;;;;;;;;;;;-142.75;100.00;77393.19;5012457;28;20469;-65
2023/04/21 04:32:02;;;;;;;;;;;;;;;-142.75;100.00;77383.34;5012425;28;19963;-65
2023/04/21 04:34:28;;;;;;;;;;;;;;;-142.75;100.00;77399.09;5012098;28;20364;-65
2023/04/21 04:36:53;;;;;;;;;;;;;;;-142.75;100.00;77391.22;5011187;28;19910;-66
2023/04/21 04:39:18;;;;;;;;;;;;;;;-142.75;100.00;77387.28;4994615;28;19920;-65
2023/04/21 04:41:43;;;;;;;;;;;;;;;-142.75;100.00;77383.34;5012141;28;19920;-65
2023/04/21 04:44:09;;;;;;;;;;;;;;;-142.75;100.00;77383.34;5012002;28;19913;-65
2023/04/21 04:46:35;;;;;;;;;;;;;;;-142.75;100.00;77389.25;5012246;28;20026;-63
2023/04/21 04:49:00;;;;;;;;;;;;;;;-142.75;100.00;77373.50;5012228;28;19952;-66
2023/04/21 04:51:26;;;;;;;;;;;;;;;-142.75;100.00;77355.78;5012241;28;20382;-64
2023/04/21 04:53:51;;;;;;;;;;;;;;;-142.75;100.00;77357.75;5011740;28;19914;-64
2023/04/21 04:56:16;;;;;;;;;;;;;;;-142.75;100.00;77373.50;4994491;28;20302;-65
2023/04/21 04:58:41;;;;;;;;;;;;;;;-142.75;100.00;77385.31;5012158;28;19909;-65
2023/04/21 05:01:11;;;;;;;;;;;;;;;-142.75;100.00;77357.75;5012140;28;19909;-66
2023/04/21 05:03:36;;;;;;;;;;;;;;;-142.75;100.00;77357.75;4994060;28;19948;-67
2023/04/21 05:06:02;;;;;;;;;;;;;;;-142.75;100.00;77357.75;5014025;28;19956;-65
2023/04/21 05:08:27;;;;;;;;;;;;;;;-142.75;100.00;77365.63;4998381;28;20364;-65
2023/04/21 05:10:52;;;;;;;;;;;;;;;-142.75;100.00;77363.66;4998329;28;19915;-65
2023/04/21 05:13:17;;;;;;;;;;;;;;;-142.75;100.00;77349.88;5015542;28;19913;-66
2023/04/21 05:15:43;;;;;;;;;;;;;;;-142.75;100.00;77361.69;5015909;28;19955;-65
2023/04/21 05:18:08;;;;;;;;;;;;;;;-142.75;100.00;77355.78;5015945;28;19909;-65
2023/04/21 05:20:33;;;;;;;;;;;;;;;-142.75;100.00;77373.50;4998237;28;19909;-65
2023/04/21 05:22:58;;;;;;;;;;;;;;;-142.75;100.00;77349.88;4997772;28;19920;-65
2023/04/21 05:25:23;;;;;;;;;;;;;;;-142.75;100.00;77357.75;5015318;28;19917;-65
2023/04/21 05:27:49;;;;;;;;;;;;;;;-142.75;100.00;77320.34;5015813;28;19920;-66
2023/04/21 05:30:14;;;;;;;;;;;;;;;-142.75;100.00;77330.19;4998079;28;19909;-65
2023/04/21 05:32:39;;;;;;;;;;;;;;;-142.75;100.00;77353.81;5015375;28;19920;-66
2023/04/21 05:35:05;;;;;;;;;;;;;;;-142.75;100.00;77342.00;5014312;28;19915;-65
2023/04/21 05:37:30;;;;;;;;;;;;;;;-142.75;100.00;77338.06;5015524;28;19915;-65
2023/04/21 05:39:55;;;;;;;;;;;;;;;-142.75;100.00;77334.13;5015537;28;19931;-64
2023/04/21 05:42:20;;;;;;;;;;;;;;;-142.75;100.00;77338.06;5014148;28;19959;-65
2023/04/21 05:44:46;;;;;;;;;;;;;;;-142.75;100.00;77359.72;4997834;28;19940;-66
2023/04/21 05:47:11;;;;;;;;;;;;;;;-142.75;100.00;77338.06;5015356;28;19913;-66
2023/04/21 05:49:36;;;;;;;;;;;;;;;-142.75;100.00;77334.13;5015334;28;19909;-66
2023/04/21 05:52:01;;;;;;;;;;;;;;;-142.75;100.00;77353.81;5015239;28;19909;-66
2023/04/21 05:54:27;;;;;;;;;;;;;;;-142.75;100.00;77357.75;4997171;28;19913;-66
2023/04/21 05:56:52;;;;;;;;;;;;;;;-142.75;100.00;77353.81;5015091;28;19909;-65
2023/04/21 05:59:17;;;;;;;;;;;;;;;-142.75;100.00;77342.00;5015180;28;19999;-65
2023/04/21 06:01:42;;;;;;;;;;;;;;;-142.75;100.00;77357.75;5015268;28;19910;-66
2023/04/21 06:04:08;;;;;;;;;;;;;;;-142.75;100.00;77357.75;5014526;28;19986;-65
2023/04/21 06:06:33;;;;;;;;;;;;;;;-142.75;100.00;77353.81;5014923;28;19941;-66
2023/04/21 06:08:58;;;;;;;;;;;;;;;-142.75;100.00;77349.88;5014915;28;19995;-65
2023/04/21 06:11:23;;;;;;;;;;;;;;;-142.75;100.00;77347.91;5011132;28;19944;-66
2023/04/21 06:13:49;;;;;;;;;;;;;;;-142.75;100.00;77349.88;4993906;28;19922;-65
2023/04/21 06:16:14;;;;;;;;;;;;;;;-142.75;100.00;77332.16;4995293;28;19979;-65
2023/04/21 06:18:39;;;;;;;;;;;;;;;-142.75;100.00;77330.19;4976850;28;19917;-65
2023/04/21 06:21:05;;;;;;;;;;;;;;;-142.75;100.00;77330.19;4977497;28;20060;-64
2023/04/21 06:23:30;;;;;;;;;;;;;;;-142.75;100.00;77328.22;4994666;28;19999;-63
2023/04/21 06:26:00;;;;;;;;;;;;;;;-142.75;100.00;77334.13;5008985;28;19924;-65
2023/04/21 06:28:25;;;;;;;;;;;;;;;-142.75;100.00;77338.06;5014388;28;19916;-63
2023/04/21 06:30:50;;;;;;;;;;;;;;;-142.75;100.00;77334.13;5010768;28;19909;-65
2023/04/21 06:33:15;;;;;;;;;;;;;;;-142.75;100.00;77322.31;5006542;28;19917;-66
2023/04/21 06:35:41;;;;;;;;;;;;;;;-142.75;100.00;77330.19;5012423;28;19917;-65
2023/04/21 06:38:07;;;;;;;;;;;;;;;-142.75;100.00;77322.31;5014079;28;20436;-65
2023/04/21 06:40:33;;;;;;;;;;;;;;;-142.75;100.00;77328.22;5013355;28;19919;-66
2023/04/21 06:42:58;;;;;;;;;;;;;;;-142.75;100.00;77310.50;5013494;28;20335;-65
2023/04/21 06:45:23;;;;;;;;;;;;;;;-142.75;100.00;77322.31;5013849;28;19909;-65
2023/04/21 06:47:48;;;;;;;;;;;;;;;-142.75;100.00;77306.56;5013603;28;19964;-65
2023/04/21 06:50:13;;;;;;;;;;;;;;;-142.75;100.00;77306.56;5013820;28;19910;-64
2023/04/21 06:52:39;;;;;;;;;;;;;;;-142.75;100.00;77300.66;4998672;28;19917;-67
2023/04/21 06:55:04;;;;;;;;;;;;;;;-142.75;100.00;77312.47;5010779;28;19967;-64
2023/04/21 06:57:30;;;;;;;;;;;;;;;-142.75;100.00;77294.75;5007860;28;19913;-64
2023/04/21 06:59:55;;;;;;;;;;;;;;;-142.75;100.00;77292.78;5012828;28;19960;-65
2023/04/21 07:02:20;;;;;;;;;;;;;;;-142.75;100.00;77318.38;5013249;28;19910;-65
2023/04/21 07:04:45;;;;;;;;;;;;;;;-142.75;100.00;77310.50;5013102;28;19917;-65
2023/04/21 07:07:12;;;;;;;;;;;;;;;-142.75;100.00;77300.66;5013388;28;20410;-65
2023/04/21 07:09:37;;;;;;;;;;;;;;;-142.75;100.00;77296.72;5012005;28;19917;-65
2023/04/21 07:12:02;;;;;;;;;;;;;;;-142.75;100.00;77294.75;5013266;28;19909;-66
2023/04/21 07:14:28;;;;;;;;;;;;;;;-142.75;100.00;77302.63;5012806;28;20076;-65
2023/04/21 07:16:55;;;;;;;;;;;;;;;-142.75;100.00;77294.75;5013321;28;19910;-64
2023/04/21 07:19:21;;;;;;;;;;;;;;;-142.75;100.00;77298.69;5033290;23;19928;-68
2023/04/21 07:21:46;;;;;;;;;;;;;;;-142.75;100.00;77282.94;5004147;28;20012;-69
2023/04/21 07:24:11;;;;;;;;;;;;;;;-142.75;100.00;77286.88;5009168;28;20366;-70
2023/04/21 07:26:36;;;;;;;;;;;;;;;-142.75;100.00;77269.16;5002003;28;20432;-69
2023/04/21 07:29:01;;;;;;;;;;;;;;;-142.75;100.00;77263.25;5000294;28;19910;-70
2023/04/21 07:31:27;;;;;;;;;;;;;;;-142.75;100.00;77261.28;4993241;28;19953;-69
2023/04/21 07:33:52;;;;;;;;;;;;;;;-142.75;100.00;77257.34;4993398;28;20524;-68
2023/04/21 07:36:17;;;;;;;;;;;;;;;-142.75;100.00;77219.94;4993738;28;19963;-68
2023/04/21 07:38:43;;;;;;;;;;;;;;;-142.75;100.00;77204.19;4976253;28;20013;-67
2023/04/21 07:41:11;;;;;;;;;;;;;;;-142.75;100.00;77231.75;4987196;28;19921;-68
2023/04/21 07:43:37;;;;;;;;;;;;;;;-142.75;100.00;77204.19;4973744;28;20005;-68
2023/04/21 07:46:02;;;;;;;;;;;;;;;-142.75;100.00;77204.19;4974148;28;20082;-68
2023/04/21 07:48:28;;;;;;;;;;;;;;;-142.75;100.00;77210.09;4973852;28;19910;-68
2023/04/21 07:50:53;;;;;;;;;;;;;;;-142.75;100.00;77192.38;4973933;28;19917;-67
2023/04/21 07:53:18;;;;;;;;;;;;;;;-142.75;100.00;77172.69;4973655;28;19914;-68
2023/04/21 07:55:43;;;;;;;;;;;;;;;-142.75;100.00;77188.44;4973985;28;19936;-69
2023/04/21 07:58:09;;;;;;;;;;;;;;;-142.75;100.00;77190.41;4984465;28;19914;-68
2023/04/21 08:00:34;;;;;;;;;;;;;;;-142.75;100.00;77188.44;4982935;28;20325;-67
2023/04/21 08:03:00;;;;;;;;;;;;;;;-142.75;100.00;77154.97;4981381;28;19917;-67
2023/04/21 08:05:25;;;;;;;;;;;;;;;-142.75;100.00;77139.22;4996039;28;20019;-69
2023/04/21 08:07:50;;;;;;;;;;;;;;;-142.75;100.00;77137.25;4987429;28;19913;-68
2023/04/21 08:10:16;;;;;;;;;;;;;;;-142.75;100.00;77176.63;4989280;28;19914;-68
2023/04/21 08:12:41;;;;;;;;;;;;;;;-142.75;100.00;77182.53;4964125;28;19926;-68
2023/04/21 08:15:07;;;;;;;;;;;;;;;-142.75;100.00;77147.09;4985511;28;19910;-67
2023/04/21 08:17:32;;;;;;;;;;;;;;;-142.75;100.00;77082.13;5007484;28;19999;-66
2023/04/21 08:19:57;;;;;;;;;;;;;;;-142.75;100.00;77107.72;5012340;28;20400;-66
2023/04/21 08:22:23;;;;;;;;;;;;;;;-142.75;100.00;77145.13;5003419;28;19909;-66
2023/04/21 08:24:48;;;;;;;;;;;;;;;-142.75;100.00;77101.81;5011834;28;19932;-68
2023/04/21 08:27:13;;;;;;;;;;;;;;;-142.75;100.00;77078.19;5012458;28;19909;-68
2023/04/21 08:29:38;;;;;;;;;;;;;;;-142.75;100.00;77133.31;5012425;28;20393;-68
2023/04/21 08:32:04;;;;;;;;;;;;;;;-142.75;100.00;77153.00;4988383;28;19921;-69
2023/04/21 08:34:29;;;;;;;;;;;;;;;-142.75;100.00;77137.25;4972986;28;20402;-68
2023/04/21 08:36:54;;;;;;;;;;;;;;;-142.75;100.00;77054.56;4979169;28;19960;-67
2023/04/21 08:39:20;;;;;;;;;;;;;;;-142.75;100.00;77038.81;4981953;28;19914;-68
2023/04/21 08:41:46;;;;;;;;;;;;;;;-142.75;100.00;77101.81;4982070;28;19913;-67
2023/04/21 08:44:11;;;;;;;;;;;;;;;-142.75;100.00;77129.38;4981578;28;19997;-68
2023/04/21 08:46:37;;;;;;;;;;;;;;;-142.75;100.00;77046.69;4983340;28;20000;-68
2023/04/21 08:49:03;;;;;;;;;;;;;;;-142.75;100.00;77062.44;4972953;28;20012;-69
2023/04/21 08:51:29;;;;;;;;;;;;;;;-142.75;100.00;77091.97;4981894;28;20350;-68
2023/04/21 08:53:54;;;;;;;;;;;;;;;-142.75;100.00;77070.31;4973723;28;19960;-67
2023/04/21 08:56:20;;;;;;;;;;;;;;;-142.75;100.00;77068.34;4981864;28;19938;-68
2023/04/21 08:58:45;;;;;;;;;;;;;;;-142.75;100.00;77091.97;4982155;28;19957;-67
2023/04/21 09:01:10;;;;;;;;;;;;;;;-142.75;100.00;77072.28;4980818;28;19929;-67
2023/04/21 09:03:36;;;;;;;;;;;;;;;-142.75;100.00;77060.47;4964782;28;19914;-68
2023/04/21 09:06:05;;;;;;;;;;;;;;;-142.75;100.00;77042.75;4972991;28;19924;-68
2023/04/21 09:08:31;;;;;;;;;;;;;;;-142.75;100.00;76962.03;4976639;28;20004;-69
2023/04/21 09:10:58;;;;;;;;;;;;;;;-142.75;100.00;76979.75;4981129;28;19957;-68
2023/04/21 09:13:36;;;;;;;;;;;;;;;-142.75;100.00;77017.16;4955733;28;20338;-68
2023/04/21 09:16:02;;;;;;;;;;;;;;;-142.75;100.00;77090.00;4980103;28;19914;-69
2023/04/21 09:18:34;;;;;;;;;;;;;;;-142.75;100.00;77093.94;4981825;28;19956;-68
2023/04/21 09:21:09;;;;;;;;;;;;;;;-142.75;100.00;77068.34;4983211;28;20398;-68
2023/04/21 09:23:41;;;;;;;;;;;;;;;-142.75;100.00;77097.88;4982795;28;19964;-68
2023/04/21 09:26:07;;;;;;;;;;;;;;;-142.75;100.00;77109.69;4982956;28;19918;-68
2023/04/21 09:28:32;;;;;;;;;;;;;;;-142.75;100.00;77088.03;4988136;28;20005;-68
2023/04/21 09:30:58;;;;;;;;;;;;;;;-142.75;100.00;77038.81;4990878;28;19917;-68
2023/04/21 09:33:23;;;;;;;;;;;;;;;-142.75;100.00;77034.88;4974441;28;19925;-69
2023/04/21 09:35:48;;;;;;;;;;;;;;;-142.75;100.00;77028.97;4991723;28;19909;-68
2023/04/21 09:38:14;;;;;;;;;;;;;;;-142.75;100.00;77066.38;4990832;28;19913;-69
2023/04/21 09:40:39;;;;;;;;;;;;;;;-142.75;100.00;77084.09;4987995;28;20397;-68
2023/04/21 09:43:05;;;;;;;;;;;;;;;-142.75;100.00;77056.53;4991711;28;20060;-68
2023/04/21 09:45:31;;;;;;;;;;;;;;;-142.75;100.00;77040.78;4991834;28;19997;-68
2023/04/21 09:47:59;;;;;;;;;;;;;;;-142.75;100.00;77056.53;4974580;28;20302;-69
2023/04/21 09:50:25;;;;;;;;;;;;;;;-142.75;100.00;77007.31;4991892;28;19910;-68
2023/04/21 09:52:51;;;;;;;;;;;;;;;-142.75;100.00;77011.25;4992993;28;19920;-68
2023/04/21 09:55:17;;;;;;;;;;;;;;;-142.75;100.00;77027.00;4988786;28;19914;-68
2023/04/21 09:57:43;;;;;;;;;;;;;;;-142.75;100.00;77068.34;5004429;28;19960;-68
2023/04/21 10:00:10;;;;;;;;;;;;;;;-142.75;100.00;77074.25;4995656;28;20354;-69
2023/04/21 10:02:43;;;;;;;;;;;;;;;-142.75;100.00;77091.97;4979229;28;20371;-68
2023/04/21 10:05:09;;;;;;;;;;;;;;;-142.75;100.00;77044.72;4983528;28;19945;-68
2023/04/21 10:07:34;;;;;;;;;;;;;;;-142.75;100.00;76993.53;4988450;28;19910;-70
2023/04/21 10:10:00;;;;;;;;;;;;;;;-142.75;100.00;76930.53;4984007;28;19965;-68
2023/04/21 10:12:26;;;;;;;;;;;;;;;-142.75;100.00;76873.44;4985355;28;20395;-68
2023/04/21 10:14:54;;;;;;;;;;;;;;;-142.75;100.00;76849.81;4985434;28;19921;-68
2023/04/21 10:17:24;;;;;;;;;;;;;;;-142.75;100.00;76889.19;4984083;28;20298;-68
2023/04/21 10:19:56;;;;;;;;;;;;;;;-142.75;100.00;76891.16;4988746;28;19913;-69
2023/04/21 10:22:31;;;;;;;;;;;;;;;-142.75;100.00;76904.94;4988434;28;20398;-68
2023/04/21 10:24:57;;;;;;;;;;;;;;;-142.75;100.00;76920.69;4989098;28;19913;-68
2023/04/21 10:27:35;;;;;;;;;;;;;;;-142.75;100.00;76838.00;4994835;28;19913;-68
2023/04/21 10:30:00;;;;;;;;;;;;;;;-142.75;100.00;76759.28;4994904;28;19910;-68
2023/04/21 10:32:40;;;;;;;;;;;;;;;-142.75;100.00;76749.44;4994598;28;20051;-68
2023/04/21 10:35:07;;;;;;;;;;;;;;;-142.75;100.00;76784.88;4994835;28;19922;-69
2023/04/21 10:37:32;;;;;;;;;;;;;;;-142.75;100.00;76788.81;4994626;28;19916;-68
2023/04/21 10:39:58;;;;;;;;;;;;;;;-142.75;100.00;76759.28;4987819;28;19910;-66
2023/04/21 10:42:24;;;;;;;;;;;;;;;-142.75;100.00;76802.56;4985588;28;20282;-65
2023/04/21 10:44:52;;;;;;;;;;;;;;;-142.75;100.00;76757.31;4992171;28;20110;-67
2023/04/21 10:47:25;;;;;;;;;;;;;;;-142.75;100.00;76735.66;4978251;28;20371;-67
2023/04/21 10:49:50;;;;;;;;;;;;;;;-142.75;100.00;76761.25;4986397;28;19913;-67
2023/04/21 10:52:18;;;;;;;;;;;;;;;-142.75;100.00;76725.81;4990631;28;20321;-67
2023/04/21 10:55:03;;;;;;;;;;;;;;;-142.75;100.00;76682.50;4988641;28;19918;-67
2023/04/21 10:57:30;;;;;;;;;;;;;;;-142.75;100.00;76676.59;4990487;28;20501;-68
2023/04/21 11:03:10;;;;;;;;;;;;;;;-142.75;100.00;76674.63;6054415;22;20943;-64
2023/04/21 11:05:37;;;;;;;;;;;;;;;-142.75;100.00;76645.09;4999134;28;19967;-67
2023/04/21 11:08:06;;;;;;;;;;;;;;;-142.75;100.00;76611.63;4976762;28;19917;-67
2023/04/21 11:10:42;;;;;;;;;;;;;;;-142.75;100.00;76605.72;4982108;28;19952;-66
2023/04/21 11:13:07;;;;;;;;;;;;;;;-142.75;100.00;76540.75;4994296;28;19918;-68
2023/04/21 11:15:32;;;;;;;;;;;;;;;-142.75;100.00;76586.03;4976146;28;19918;-68
2023/04/21 11:17:57;;;;;;;;;;;;;;;-142.75;100.00;76641.16;4990295;28;19913;-66
2023/04/21 11:20:23;;;;;;;;;;;;;;;-142.75;100.00;76690.38;4990022;28;20378;-65
2023/04/21 11:22:51;;;;;;;;;;;;;;;-142.75;100.00;76643.13;4989920;28;20466;-67
2023/04/21 11:25:17;;;;;;;;;;;;;;;-142.75;100.00;76584.06;4989559;28;19918;-68
2023/04/21 11:27:53;;;;;;;;;;;;;;;-142.75;100.00;76554.53;4979062;28;20420;-68
2023/04/21 11:30:19;;;;;;;;;;;;;;;-142.75;100.00;76515.19;4972026;28;19925;-68
2023/04/21 11:32:44;;;;;;;;;;;;;;;-142.75;100.00;76544.69;4975333;28;19913;-67
2023/04/21 11:35:10;;;;;;;;;;;;;;;-142.75;100.00;76593.91;4972182;28;19963;-67
2023/04/21 11:37:35;;;;;;;;;;;;;;;-142.75;100.00;76633.28;4970181;28;19914;-67
2023/04/21 11:40:02;;;;;;;;;;;;;;;-142.75;100.00;76568.31;4989484;28;19957;-66
2023/04/21 11:42:27;;;;;;;;;;;;;;;-142.75;100.00;76544.69;4989587;28;19910;-67
2023/04/21 11:44:53;;;;;;;;;;;;;;;-142.75;100.00;76534.84;4989569;28;19917;-68
2023/04/21 11:47:19;;;;;;;;;;;;;;;-142.75;100.00;76538.78;4989616;28;19921;-67
2023/04/21 11:49:58;;;;;;;;;;;;;;;-142.75;100.00;76586.03;4987947;28;20001;-67
2023/04/21 11:52:26;;;;;;;;;;;;;;;-142.75;100.00;76588.00;4982884;28;20663;-67
2023/04/21 11:54:57;;;;;;;;;;;;;;;-142.75;100.00;76580.13;4989186;28;19922;-67
2023/04/21 11:57:24;;;;;;;;;;;;;;;-142.75;100.00;76528.97;4972826;28;20370;-66
2023/04/21 11:59:49;;;;;;;;;;;;;;;-142.75;100.00;76452.19;4984519;28;19918;-68
2023/04/21 12:02:25;;;;;;;;;;;;;;;-142.75;100.00;76416.75;4988704;28;20429;-68
2023/04/21 12:05:01;;;;;;;;;;;;;;;-142.75;97.58;76393.13;4988875;28;19921;-68
2023/04/21 12:07:28;;;;;;;;;;;;;;;-142.75;98.79;76371.47;4983585;28;20434;-68
2023/04/21 12:09:53;;;;;;;;;;;;;;;-142.75;91.28;76402.97;4991452;28;19909;-68
2023/04/21 12:12:20;;;;;;;;;;;;;;;-142.75;92.21;76369.50;4987983;28;19965;-67
2023/04/21 12:14:45;;;;;;;;;;;;;;;-142.75;100.00;76310.47;4976239;28;19985;-67